Flight Track Log - Related Links

Times and Time Zones

All times are in EDT time to prevent confusion due to time zone crossing. See the UAL326 flight status page for this flight to view local times or setup timezone preferences in your user account.

Time Position Orientation Groundspeed Altitude Reporting Facility
EDT Latitude Longitude Course Direction KTS MPH feet Rate Location/Type
Mon 02:06:27 PM 28.4000 -81.3000 350° North 167 192 700  Level Orlando TRACON
Mon 02:08:02 PM 28.3333 -81.2278 136° Southeast 243 280 3,600 1,935 Climbing Jacksonville Center
Mon 02:09:00 PM 28.8000 -81.3500 North  Level FlightAware Approximate
Mon 02:09:02 PM 28.3678 -81.1492 64° Northeast 307 353 5,700  Level Jacksonville Center
Mon 02:10:00 PM 28.9306 -81.3597 355° North  Level FlightAware Approximate
Mon 02:10:02 PM 28.4386 -81.1528 357° North 284 327 8,700  Level Jacksonville Center
Mon 02:11:00 PM 29.0605 -81.3788 350° North  Level FlightAware Approximate
Mon 02:11:02 PM 28.5183 -81.1797 343° North 304 350 11,000  Level Jacksonville Center
Mon 02:12:02 PM 28.6128 -81.2158 341° North 329 379 12,600 1,933 Climbing Jacksonville Center
Mon 02:14:02 PM 28.8203 -81.2906 342° North 383 441 16,800 2,000 Climbing Jacksonville Center
Mon 02:15:02 PM 28.9333 -81.3292 343° North 401 461 18,600 1,700 Climbing Jacksonville Center
Mon 02:17:02 PM 29.1639 -81.3992 345° North 422 486 21,900 1,533 Climbing Jacksonville Center
Mon 02:18:02 PM 29.2933 -81.4092 356° North 442 509 23,200 1,233 Climbing Jacksonville Center
Mon 02:20:02 PM 29.5483 -81.4364 355° North 462 532 25,600 1,175 Climbing Jacksonville Center
Mon 02:22:02 PM 29.8158 -81.4611 355° North 467 537 27,900 1,225 Climbing Jacksonville Center
Mon 02:24:02 PM 30.0939 -81.4881 355° North 478 550 30,500 1,233 Climbing Jacksonville Center
Mon 02:25:02 PM 30.2256 -81.4983 356° North 478 550 31,600 1,033 Climbing Jacksonville Center
Mon 02:27:02 PM 30.4844 -81.4992 360° North 472 543 33,600 833 Climbing Jacksonville Center
Mon 02:28:02 PM 30.6158 -81.4900 North 466 536 34,100 467 Climbing Jacksonville Center
Mon 02:30:02 PM 30.8850 -81.4692 North 478 550 35,000 300 Climbing Jacksonville Center
Mon 02:31:02 PM 31.0181 -81.4283 15° North 478 550 35,000  Level Jacksonville Center
Mon 02:32:02 PM 31.1403 -81.3392 32° Northeast 490 564 35,000  Level Jacksonville Center
Mon 02:34:00 PM 31.3279 -81.1990 33° Northeast  Level FlightAware Approximate
Mon 02:35:02 PM 31.5061 -81.0700 33° Northeast 520 598 35,000  Level Jacksonville Center
Mon 02:36:02 PM 31.6281 -80.9822 31° Northeast 512 589 35,000  Level Jacksonville Center
Mon 02:38:02 PM 31.8758 -80.8033 31° Northeast 518 596 35,000  Level Jacksonville Center
Mon 02:40:00 PM 32.0607 -80.6571 34° Northeast  Level FlightAware Approximate
Mon 02:42:02 PM 32.3475 -80.4508 31° Northeast 518 596 35,000  Level Jacksonville Center
Mon 02:43:02 PM 32.4647 -80.3614 33° Northeast 513 590 34,900  Descending Jacksonville Center
Mon 02:45:02 PM 32.7178 -80.1717 32° Northeast 513 590 35,000  Climbing Jacksonville Center
Mon 02:46:02 PM 32.8347 -80.0792 34° Northeast 513 590 34,900  Descending Jacksonville Center
Mon 02:47:00 PM 32.7266 -80.1466 31° Northeast  Level FlightAware Approximate
Mon 02:48:02 PM 33.0336 -79.8375 45° Northeast 508 585 35,000  Level Jacksonville Center
Mon 02:50:02 PM 33.2147 -79.5731 51° Northeast 508 585 34,900 -33 Descending Jacksonville Center
Mon 02:51:02 PM 33.3050 -79.4431 50° Northeast 503 579 34,900  Level Jacksonville Center
Mon 02:53:00 PM 33.4444 -79.2322 52° Northeast  Level FlightAware Approximate
Mon 02:54:02 PM 33.5692 -79.0489 52° Northeast 503 579 34,900  Level Jacksonville Center
Mon 02:55:02 PM 33.6592 -78.9178 50° Northeast 508 585 35,000 34 Climbing Jacksonville Center
Mon 02:57:00 PM 33.8278 -78.6614 52° Northeast 503 579 35,000 -25 Level Washington Center
Mon 02:58:00 PM 33.8964 -78.5514 53° Northeast  Level FlightAware Approximate
Mon 02:59:01 PM 33.9989 -78.4100 53° Northeast 515 593 34,900  Level Washington Center
Mon 03:00:02 PM 34.1117 -78.3108 36° Northeast 501 577 35,000 50 Climbing Washington Center
Mon 03:01:00 PM 34.2542 -78.2878 North 492 566 35,000 -33 Level Washington Center
Mon 03:03:02 PM 34.5386 -78.2494 North 502 578 34,900  Descending Washington Center
Mon 03:05:00 PM 34.8358 -78.2108 North 508 585 35,000 25 Climbing Washington Center
Mon 03:07:00 PM 35.0620 -78.1716 North  Level Estimated
Mon 03:07:02 PM 35.0997 -78.1689 North 503 579 35,000  Level Washington Center
Mon 03:08:02 PM 35.2567 -78.1483 North 508 585 35,000  Level Washington Center
Mon 03:09:02 PM 35.3989 -78.1275 North 503 579 35,000  Level Washington Center
Mon 03:10:00 PM 35.5392 -78.1064 North 503 579 35,000 -536 Level Washington Center
Mon 03:12:01 PM 35.8217 -78.0717 North 503 579 33,400 -1,339 Descending Washington Center
Mon 03:14:02 PM 36.1042 -78.0317 North 503 579 29,600 -1,856 Descending Washington Center
Mon 03:15:02 PM 36.2422 -78.0128 North 503 579 27,800 -650 Descending Washington Center
Mon 03:17:00 PM 36.4720 -78.0000 North  Level FlightAware Approximate
Mon 03:18:02 PM 36.6461 -77.9581 North 486 559 27,000  Level Washington Center
Mon 03:19:00 PM 36.7819 -77.9361 North 486 559 27,000 -254 Level Washington Center
Mon 03:20:00 PM 36.9158 -77.9169 North 486 559 26,500 -744 Descending Washington Center
Mon 03:21:01 PM 37.0497 -77.9003 North 486 559 25,500 -1,180 Descending Washington Center
Mon 03:22:02 PM 37.1794 -77.8806 North 481 554 24,100 -1,438 Descending Washington Center
Mon 03:23:02 PM 37.3050 -77.8556 North 474 545 22,600 -1,050 Descending Washington Center
Mon 03:24:02 PM 37.4189 -77.8014 21° North 446 513 22,000 -864 Descending Washington Center
Mon 03:25:00 PM 37.5367 -77.7472 20° North 441 507 20,900 -1,933 Descending Washington Center
Mon 03:27:02 PM 37.7594 -77.6433 20° North 428 493 16,200 -2,367 Descending Washington Center
Mon 03:28:00 PM 37.8647 -77.5936 20° North 417 480 13,800 -2,319 Descending Washington Center
Mon 03:29:01 PM 37.9675 -77.5461 20° North 399 459 11,600 -1,022 Descending Washington Center
Mon 03:31:00 PM 38.2076 -77.4160 29° Northeast  Level FlightAware Approximate
Mon 03:31:49 PM 38.2000 -77.4333 29° Northeast 300 345 9,900  Level Potomac TRACON
Mon 03:33:01 PM 38.2869 -77.3853 23° Northeast 301 346 9,300 -1,161 Descending Washington Center
Mon 03:34:55 PM 38.4500 -77.4000 356° North 304 350 6,300 -1,166 Descending Potomac TRACON
Mon 03:35:56 PM 38.5167 -77.4333 339° North 268 308 5,900 -610 Descending Potomac TRACON
Mon 03:38:02 PM 38.6500 -77.4333 360° North 201 231 4,400 -732 Descending Potomac TRACON
Mon 03:40:02 PM 38.7500 -77.4333 360° North 178 205 2,900 -567 Descending Potomac TRACON
Mon 03:41:02 PM 38.8000 -77.4333 360° North 180 207 2,700 -550 Descending Potomac TRACON
Mon 03:42:02 PM 38.8500 -77.4333 360° North 154 177 1,800 -793 Descending Potomac TRACON
Mon 03:43:03 PM 38.8833 -77.4333 360° North 137 158 1,100 -689 Descending Potomac TRACON

Login

Don't have an account? Register now (free) for customized features, flight alerts, and more!